sensor_id;sensor_type;location;lat;lon;timestamp;P1;durP1;ratioP1;P2;durP2;ratioP2
2656;SDS011;1338;48.176;11.792;2022-07-21T00:00:16;6.17;;;5.77;;
2656;SDS011;1338;48.176;11.792;2022-07-21T00:02:47;6.20;;;5.53;;
2656;SDS011;1338;48.176;11.792;2022-07-21T00:05:15;6.47;;;5.97;;
2656;SDS011;1338;48.176;11.792;2022-07-21T00:07:44;6.20;;;5.70;;
2656;SDS011;1338;48.176;11.792;2022-07-21T00:10:12;6.20;;;5.60;;
2656;SDS011;1338;48.176;11.792;2022-07-21T00:12:41;7.90;;;6.03;;
2656;SDS011;1338;48.176;11.792;2022-07-21T00:15:10;6.37;;;5.90;;
2656;SDS011;1338;48.176;11.792;2022-07-21T00:17:41;6.07;;;5.57;;
2656;SDS011;1338;48.176;11.792;2022-07-21T00:20:10;6.57;;;6.17;;
2656;SDS011;1338;48.176;11.792;2022-07-21T00:22:39;6.63;;;6.07;;
2656;SDS011;1338;48.176;11.792;2022-07-21T00:25:08;6.80;;;6.20;;
2656;SDS011;1338;48.176;11.792;2022-07-21T00:27:38;6.77;;;6.27;;
2656;SDS011;1338;48.176;11.792;2022-07-21T00:30:07;7.73;;;7.13;;
2656;SDS011;1338;48.176;11.792;2022-07-21T00:32:36;7.40;;;6.50;;
2656;SDS011;1338;48.176;11.792;2022-07-21T00:35:07;6.90;;;6.30;;
2656;SDS011;1338;48.176;11.792;2022-07-21T00:37:36;6.90;;;6.30;;
2656;SDS011;1338;48.176;11.792;2022-07-21T00:40:06;6.53;;;5.93;;
2656;SDS011;1338;48.176;11.792;2022-07-21T00:42:36;6.20;;;5.80;;
2656;SDS011;1338;48.176;11.792;2022-07-21T00:45:05;7.00;;;6.40;;
2656;SDS011;1338;48.176;11.792;2022-07-21T00:47:34;7.70;;;7.10;;
2656;SDS011;1338;48.176;11.792;2022-07-21T00:50:04;6.70;;;6.20;;
2656;SDS011;1338;48.176;11.792;2022-07-21T00:52:35;6.70;;;6.13;;
2656;SDS011;1338;48.176;11.792;2022-07-21T00:55:04;6.20;;;5.80;;
2656;SDS011;1338;48.176;11.792;2022-07-21T00:57:33;6.40;;;5.90;;
2656;SDS011;1338;48.176;11.792;2022-07-21T01:00:02;6.60;;;6.00;;
2656;SDS011;1338;48.176;11.792;2022-07-21T01:02:31;6.80;;;6.30;;
2656;SDS011;1338;48.176;11.792;2022-07-21T01:05:03;6.70;;;6.20;;
2656;SDS011;1338;48.176;11.792;2022-07-21T01:07:33;7.00;;;6.40;;
2656;SDS011;1338;48.176;11.792;2022-07-21T01:10:02;7.37;;;6.67;;
2656;SDS011;1338;48.176;11.792;2022-07-21T01:12:30;7.00;;;6.37;;
2656;SDS011;1338;48.176;11.792;2022-07-21T01:14:59;7.00;;;6.40;;
2656;SDS011;1338;48.176;11.792;2022-07-21T01:17:27;6.87;;;6.37;;
2656;SDS011;1338;48.176;11.792;2022-07-21T01:19:56;6.63;;;6.17;;
2656;SDS011;1338;48.176;11.792;2022-07-21T01:22:25;6.63;;;6.10;;
2656;SDS011;1338;48.176;11.792;2022-07-21T01:24:54;7.10;;;6.50;;
2656;SDS011;1338;48.176;11.792;2022-07-21T01:27:23;6.80;;;6.30;;
2656;SDS011;1338;48.176;11.792;2022-07-21T01:29:52;7.57;;;6.97;;
2656;SDS011;1338;48.176;11.792;2022-07-21T01:32:20;7.00;;;6.40;;
2656;SDS011;1338;48.176;11.792;2022-07-21T01:34:49;7.60;;;6.90;;
2656;SDS011;1338;48.176;11.792;2022-07-21T01:37:20;8.10;;;7.47;;
2656;SDS011;1338;48.176;11.792;2022-07-21T01:39:50;7.50;;;6.90;;
2656;SDS011;1338;48.176;11.792;2022-07-21T01:42:36;8.80;;;7.83;;
2656;SDS011;1338;48.176;11.792;2022-07-21T01:45:05;7.50;;;6.80;;
2656;SDS011;1338;48.176;11.792;2022-07-21T01:47:34;7.93;;;7.33;;
2656;SDS011;1338;48.176;11.792;2022-07-21T01:50:03;7.13;;;6.53;;
2656;SDS011;1338;48.176;11.792;2022-07-21T01:52:32;7.67;;;7.07;;
2656;SDS011;1338;48.176;11.792;2022-07-21T01:55:01;7.60;;;7.00;;
2656;SDS011;1338;48.176;11.792;2022-07-21T01:57:29;7.63;;;7.03;;
2656;SDS011;1338;48.176;11.792;2022-07-21T01:59:58;7.90;;;7.20;;
2656;SDS011;1338;48.176;11.792;2022-07-21T02:02:26;7.40;;;6.90;;
2656;SDS011;1338;48.176;11.792;2022-07-21T02:04:54;7.97;;;7.27;;
2656;SDS011;1338;48.176;11.792;2022-07-21T02:07:22;7.70;;;7.07;;
2656;SDS011;1338;48.176;11.792;2022-07-21T02:09:50;7.93;;;7.27;;
2656;SDS011;1338;48.176;11.792;2022-07-21T02:12:20;8.50;;;7.37;;
2656;SDS011;1338;48.176;11.792;2022-07-21T02:14:48;6.97;;;6.27;;
2656;SDS011;1338;48.176;11.792;2022-07-21T02:17:16;7.43;;;6.70;;
2656;SDS011;1338;48.176;11.792;2022-07-21T02:19:44;8.90;;;8.00;;
2656;SDS011;1338;48.176;11.792;2022-07-21T02:22:12;7.00;;;6.40;;
2656;SDS011;1338;48.176;11.792;2022-07-21T02:24:41;7.23;;;6.70;;
2656;SDS011;1338;48.176;11.792;2022-07-21T02:27:09;7.33;;;6.80;;
2656;SDS011;1338;48.176;11.792;2022-07-21T02:29:38;7.87;;;7.07;;
2656;SDS011;1338;48.176;11.792;2022-07-21T02:32:06;7.60;;;7.10;;
2656;SDS011;1338;48.176;11.792;2022-07-21T02:34:34;7.57;;;6.97;;
2656;SDS011;1338;48.176;11.792;2022-07-21T02:37:02;9.37;;;8.57;;
2656;SDS011;1338;48.176;11.792;2022-07-21T02:39:30;7.70;;;7.00;;
2656;SDS011;1338;48.176;11.792;2022-07-21T02:41:59;7.90;;;7.30;;
2656;SDS011;1338;48.176;11.792;2022-07-21T02:44:27;7.90;;;7.30;;
2656;SDS011;1338;48.176;11.792;2022-07-21T02:46:58;7.83;;;7.20;;
2656;SDS011;1338;48.176;11.792;2022-07-21T02:49:26;8.70;;;8.00;;
2656;SDS011;1338;48.176;11.792;2022-07-21T02:51:54;9.60;;;8.60;;
2656;SDS011;1338;48.176;11.792;2022-07-21T02:54:23;8.37;;;7.67;;
2656;SDS011;1338;48.176;11.792;2022-07-21T02:56:51;8.33;;;7.57;;
2656;SDS011;1338;48.176;11.792;2022-07-21T02:59:19;8.90;;;8.10;;
2656;SDS011;1338;48.176;11.792;2022-07-21T03:01:47;8.73;;;7.93;;
2656;SDS011;1338;48.176;11.792;2022-07-21T03:04:17;8.53;;;7.83;;
2656;SDS011;1338;48.176;11.792;2022-07-21T03:06:45;8.40;;;7.80;;
2656;SDS011;1338;48.176;11.792;2022-07-21T03:09:14;9.00;;;8.27;;
2656;SDS011;1338;48.176;11.792;2022-07-21T03:11:42;8.37;;;7.67;;
2656;SDS011;1338;48.176;11.792;2022-07-21T03:14:10;10.20;;;9.30;;
2656;SDS011;1338;48.176;11.792;2022-07-21T03:16:38;9.00;;;8.30;;
2656;SDS011;1338;48.176;11.792;2022-07-21T03:19:06;9.30;;;8.60;;
2656;SDS011;1338;48.176;11.792;2022-07-21T03:21:40;9.20;;;8.40;;
2656;SDS011;1338;48.176;11.792;2022-07-21T03:24:08;8.83;;;8.03;;
2656;SDS011;1338;48.176;11.792;2022-07-21T03:26:36;9.00;;;8.20;;
2656;SDS011;1338;48.176;11.792;2022-07-21T03:29:05;9.20;;;8.40;;
2656;SDS011;1338;48.176;11.792;2022-07-21T03:31:33;8.83;;;8.03;;
2656;SDS011;1338;48.176;11.792;2022-07-21T03:34:02;9.20;;;8.50;;
2656;SDS011;1338;48.176;11.792;2022-07-21T03:36:30;8.80;;;8.00;;
2656;SDS011;1338;48.176;11.792;2022-07-21T03:38:59;9.30;;;8.50;;
2656;SDS011;1338;48.176;11.792;2022-07-21T03:41:28;9.00;;;8.10;;
2656;SDS011;1338;48.176;11.792;2022-07-21T03:43:56;13.90;;;9.13;;
2656;SDS011;1338;48.176;11.792;2022-07-21T03:46:24;9.40;;;8.50;;
2656;SDS011;1338;48.176;11.792;2022-07-21T03:48:52;9.27;;;8.40;;
2656;SDS011;1338;48.176;11.792;2022-07-21T03:51:21;10.00;;;8.10;;
2656;SDS011;1338;48.176;11.792;2022-07-21T03:53:49;11.07;;;9.93;;
2656;SDS011;1338;48.176;11.792;2022-07-21T03:56:18;10.00;;;9.10;;
2656;SDS011;1338;48.176;11.792;2022-07-21T03:58:46;8.80;;;8.00;;
2656;SDS011;1338;48.176;11.792;2022-07-21T04:01:15;9.10;;;8.33;;
2656;SDS011;1338;48.176;11.792;2022-07-21T04:03:43;11.87;;;9.20;;
2656;SDS011;1338;48.176;11.792;2022-07-21T04:06:11;10.30;;;9.23;;
2656;SDS011;1338;48.176;11.792;2022-07-21T04:08:40;9.80;;;9.00;;
2656;SDS011;1338;48.176;11.792;2022-07-21T04:11:08;11.00;;;9.90;;
2656;SDS011;1338;48.176;11.792;2022-07-21T04:13:37;11.00;;;9.90;;
2656;SDS011;1338;48.176;11.792;2022-07-21T04:16:06;9.40;;;8.50;;
2656;SDS011;1338;48.176;11.792;2022-07-21T04:18:34;9.70;;;8.90;;
2656;SDS011;1338;48.176;11.792;2022-07-21T04:21:03;11.70;;;10.73;;
2656;SDS011;1338;48.176;11.792;2022-07-21T04:23:31;12.10;;;10.87;;
2656;SDS011;1338;48.176;11.792;2022-07-21T04:25:59;12.60;;;11.37;;
2656;SDS011;1338;48.176;11.792;2022-07-21T04:28:27;12.03;;;11.03;;
2656;SDS011;1338;48.176;11.792;2022-07-21T04:30:57;11.53;;;10.43;;
2656;SDS011;1338;48.176;11.792;2022-07-21T04:33:25;12.50;;;11.40;;
2656;SDS011;1338;48.176;11.792;2022-07-21T04:35:58;13.57;;;12.47;;
2656;SDS011;1338;48.176;11.792;2022-07-21T04:38:26;13.53;;;12.30;;
2656;SDS011;1338;48.176;11.792;2022-07-21T04:40:54;12.53;;;11.53;;
2656;SDS011;1338;48.176;11.792;2022-07-21T04:43:22;16.90;;;15.60;;
2656;SDS011;1338;48.176;11.792;2022-07-21T04:45:50;16.43;;;15.00;;
2656;SDS011;1338;48.176;11.792;2022-07-21T04:48:20;16.50;;;15.00;;
2656;SDS011;1338;48.176;11.792;2022-07-21T04:50:48;16.50;;;15.23;;
2656;SDS011;1338;48.176;11.792;2022-07-21T04:53:17;16.03;;;14.63;;
2656;SDS011;1338;48.176;11.792;2022-07-21T04:55:45;18.47;;;16.80;;
2656;SDS011;1338;48.176;11.792;2022-07-21T04:58:13;18.60;;;17.10;;
2656;SDS011;1338;48.176;11.792;2022-07-21T05:00:42;16.93;;;15.43;;
2656;SDS011;1338;48.176;11.792;2022-07-21T05:03:10;16.43;;;14.97;;
2656;SDS011;1338;48.176;11.792;2022-07-21T05:05:41;16.63;;;15.33;;
2656;SDS011;1338;48.176;11.792;2022-07-21T05:08:09;17.17;;;15.53;;
2656;SDS011;1338;48.176;11.792;2022-07-21T05:10:37;17.97;;;16.57;;
2656;SDS011;1338;48.176;11.792;2022-07-21T05:13:05;17.20;;;15.70;;
2656;SDS011;1338;48.176;11.792;2022-07-21T05:15:33;17.40;;;16.00;;
2656;SDS011;1338;48.176;11.792;2022-07-21T05:18:02;17.50;;;15.93;;
2656;SDS011;1338;48.176;11.792;2022-07-21T05:20:30;17.13;;;15.57;;
2656;SDS011;1338;48.176;11.792;2022-07-21T05:23:00;18.00;;;16.27;;
2656;SDS011;1338;48.176;11.792;2022-07-21T05:25:28;17.83;;;16.17;;
2656;SDS011;1338;48.176;11.792;2022-07-21T05:27:58;16.00;;;14.60;;
2656;SDS011;1338;48.176;11.792;2022-07-21T05:30:26;17.13;;;15.53;;
2656;SDS011;1338;48.176;11.792;2022-07-21T05:32:54;18.13;;;16.53;;
2656;SDS011;1338;48.176;11.792;2022-07-21T05:35:23;17.93;;;16.23;;
2656;SDS011;1338;48.176;11.792;2022-07-21T05:37:51;17.77;;;16.13;;
2656;SDS011;1338;48.176;11.792;2022-07-21T05:40:20;18.67;;;17.10;;
2656;SDS011;1338;48.176;11.792;2022-07-21T05:42:49;17.83;;;16.20;;
2656;SDS011;1338;48.176;11.792;2022-07-21T05:45:17;18.10;;;16.60;;
2656;SDS011;1338;48.176;11.792;2022-07-21T05:47:45;18.33;;;16.73;;
2656;SDS011;1338;48.176;11.792;2022-07-21T05:50:13;18.93;;;17.17;;
2656;SDS011;1338;48.176;11.792;2022-07-21T05:52:42;18.50;;;16.90;;
2656;SDS011;1338;48.176;11.792;2022-07-21T05:55:10;19.50;;;17.63;;
2656;SDS011;1338;48.176;11.792;2022-07-21T05:57:41;34.97;;;18.60;;
2656;SDS011;1338;48.176;11.792;2022-07-21T06:00:13;18.70;;;17.10;;
2656;SDS011;1338;48.176;11.792;2022-07-21T06:02:42;18.10;;;16.30;;
2656;SDS011;1338;48.176;11.792;2022-07-21T06:05:10;17.80;;;16.30;;
2656;SDS011;1338;48.176;11.792;2022-07-21T06:07:39;18.20;;;16.67;;
2656;SDS011;1338;48.176;11.792;2022-07-21T06:10:08;18.80;;;17.00;;
2656;SDS011;1338;48.176;11.792;2022-07-21T06:12:43;19.03;;;17.53;;
2656;SDS011;1338;48.176;11.792;2022-07-21T06:15:11;17.23;;;15.63;;
2656;SDS011;1338;48.176;11.792;2022-07-21T06:17:40;16.77;;;15.10;;
2656;SDS011;1338;48.176;11.792;2022-07-21T06:20:09;17.50;;;15.90;;
2656;SDS011;1338;48.176;11.792;2022-07-21T06:22:38;18.33;;;16.73;;
2656;SDS011;1338;48.176;11.792;2022-07-21T06:25:06;16.93;;;15.33;;
2656;SDS011;1338;48.176;11.792;2022-07-21T06:27:35;18.97;;;17.20;;
2656;SDS011;1338;48.176;11.792;2022-07-21T06:30:06;17.83;;;16.33;;
2656;SDS011;1338;48.176;11.792;2022-07-21T06:32:34;18.53;;;17.03;;
2656;SDS011;1338;48.176;11.792;2022-07-21T06:35:03;18.70;;;17.00;;
2656;SDS011;1338;48.176;11.792;2022-07-21T06:37:32;17.43;;;15.90;;
2656;SDS011;1338;48.176;11.792;2022-07-21T06:40:00;18.67;;;16.77;;
2656;SDS011;1338;48.176;11.792;2022-07-21T06:42:29;17.50;;;15.90;;
2656;SDS011;1338;48.176;11.792;2022-07-21T06:44:57;17.30;;;15.70;;
2656;SDS011;1338;48.176;11.792;2022-07-21T06:47:27;16.87;;;15.30;;
2656;SDS011;1338;48.176;11.792;2022-07-21T06:49:55;17.27;;;15.70;;
2656;SDS011;1338;48.176;11.792;2022-07-21T06:52:31;16.97;;;15.57;;
2656;SDS011;1338;48.176;11.792;2022-07-21T06:55:00;18.53;;;16.83;;
2656;SDS011;1338;48.176;11.792;2022-07-21T06:57:29;19.57;;;17.17;;
2656;SDS011;1338;48.176;11.792;2022-07-21T06:59:57;18.40;;;16.77;;
2656;SDS011;1338;48.176;11.792;2022-07-21T07:02:27;17.77;;;15.97;;
2656;SDS011;1338;48.176;11.792;2022-07-21T07:04:55;19.70;;;17.87;;
2656;SDS011;1338;48.176;11.792;2022-07-21T07:07:32;19.40;;;17.80;;
2656;SDS011;1338;48.176;11.792;2022-07-21T07:10:01;17.80;;;16.40;;
2656;SDS011;1338;48.176;11.792;2022-07-21T07:12:29;18.57;;;16.97;;
2656;SDS011;1338;48.176;11.792;2022-07-21T07:15:17;18.00;;;16.50;;
2656;SDS011;1338;48.176;11.792;2022-07-21T07:17:47;17.57;;;16.17;;
2656;SDS011;1338;48.176;11.792;2022-07-21T07:20:15;17.10;;;15.67;;
2656;SDS011;1338;48.176;11.792;2022-07-21T07:22:44;16.63;;;15.00;;
2656;SDS011;1338;48.176;11.792;2022-07-21T07:25:12;17.40;;;16.00;;
2656;SDS011;1338;48.176;11.792;2022-07-21T07:27:43;20.03;;;18.20;;
2656;SDS011;1338;48.176;11.792;2022-07-21T07:30:12;19.67;;;17.97;;
2656;SDS011;1338;48.176;11.792;2022-07-21T07:32:41;18.03;;;16.53;;
2656;SDS011;1338;48.176;11.792;2022-07-21T07:35:11;19.67;;;17.60;;
2656;SDS011;1338;48.176;11.792;2022-07-21T07:37:40;18.60;;;17.00;;
2656;SDS011;1338;48.176;11.792;2022-07-21T07:40:11;19.63;;;17.80;;
2656;SDS011;1338;48.176;11.792;2022-07-21T07:42:41;19.63;;;17.93;;
2656;SDS011;1338;48.176;11.792;2022-07-21T07:45:10;19.17;;;17.40;;
2656;SDS011;1338;48.176;11.792;2022-07-21T07:47:39;18.47;;;16.83;;
2656;SDS011;1338;48.176;11.792;2022-07-21T07:50:09;18.73;;;17.17;;
2656;SDS011;1338;48.176;11.792;2022-07-21T07:52:40;19.17;;;17.37;;
2656;SDS011;1338;48.176;11.792;2022-07-21T07:55:10;19.53;;;17.83;;
2656;SDS011;1338;48.176;11.792;2022-07-21T07:57:39;18.30;;;16.80;;
2656;SDS011;1338;48.176;11.792;2022-07-21T08:00:09;18.80;;;17.13;;
2656;SDS011;1338;48.176;11.792;2022-07-21T08:02:59;17.20;;;15.70;;
2656;SDS011;1338;48.176;11.792;2022-07-21T08:05:27;16.50;;;15.10;;
2656;SDS011;1338;48.176;11.792;2022-07-21T08:07:57;17.30;;;15.83;;
2656;SDS011;1338;48.176;11.792;2022-07-21T08:10:25;17.97;;;16.37;;
2656;SDS011;1338;48.176;11.792;2022-07-21T08:13:10;17.30;;;15.80;;
2656;SDS011;1338;48.176;11.792;2022-07-21T08:15:39;18.27;;;16.47;;
2656;SDS011;1338;48.176;11.792;2022-07-21T08:18:07;18.03;;;16.50;;
2656;SDS011;1338;48.176;11.792;2022-07-21T08:20:36;17.07;;;15.27;;
2656;SDS011;1338;48.176;11.792;2022-07-21T08:23:06;16.97;;;15.60;;
2656;SDS011;1338;48.176;11.792;2022-07-21T08:25:37;17.70;;;16.20;;
2656;SDS011;1338;48.176;11.792;2022-07-21T08:28:06;18.20;;;16.63;;
2656;SDS011;1338;48.176;11.792;2022-07-21T08:30:34;20.80;;;18.93;;
2656;SDS011;1338;48.176;11.792;2022-07-21T08:33:03;19.77;;;18.07;;
2656;SDS011;1338;48.176;11.792;2022-07-21T08:35:32;18.27;;;16.73;;
2656;SDS011;1338;48.176;11.792;2022-07-21T08:38:01;19.17;;;17.47;;
2656;SDS011;1338;48.176;11.792;2022-07-21T08:40:33;18.70;;;17.10;;
2656;SDS011;1338;48.176;11.792;2022-07-21T08:43:03;18.13;;;16.37;;
2656;SDS011;1338;48.176;11.792;2022-07-21T08:45:32;19.83;;;17.70;;
2656;SDS011;1338;48.176;11.792;2022-07-21T08:48:01;18.30;;;16.70;;
2656;SDS011;1338;48.176;11.792;2022-07-21T08:50:30;18.67;;;17.07;;
2656;SDS011;1338;48.176;11.792;2022-07-21T08:53:02;20.17;;;18.40;;
2656;SDS011;1338;48.176;11.792;2022-07-21T08:55:33;19.63;;;17.93;;
2656;SDS011;1338;48.176;11.792;2022-07-21T08:58:02;19.20;;;17.50;;
2656;SDS011;1338;48.176;11.792;2022-07-21T09:00:33;18.07;;;16.67;;
2656;SDS011;1338;48.176;11.792;2022-07-21T09:03:12;19.33;;;17.70;;
2656;SDS011;1338;48.176;11.792;2022-07-21T09:05:43;20.63;;;18.60;;
2656;SDS011;1338;48.176;11.792;2022-07-21T09:08:28;20.10;;;18.10;;
2656;SDS011;1338;48.176;11.792;2022-07-21T09:11:13;18.83;;;17.33;;
2656;SDS011;1338;48.176;11.792;2022-07-21T09:13:43;20.80;;;19.00;;
2656;SDS011;1338;48.176;11.792;2022-07-21T09:16:18;20.93;;;19.23;;
2656;SDS011;1338;48.176;11.792;2022-07-21T09:18:59;17.83;;;16.30;;
2656;SDS011;1338;48.176;11.792;2022-07-21T09:21:28;20.60;;;18.67;;
2656;SDS011;1338;48.176;11.792;2022-07-21T09:24:10;19.57;;;17.97;;
2656;SDS011;1338;48.176;11.792;2022-07-21T09:29:36;17.70;;;16.20;;
2656;SDS011;1338;48.176;11.792;2022-07-21T09:32:13;17.47;;;15.97;;
2656;SDS011;1338;48.176;11.792;2022-07-21T09:34:43;16.70;;;15.30;;
2656;SDS011;1338;48.176;11.792;2022-07-21T09:37:12;18.07;;;16.47;;
2656;SDS011;1338;48.176;11.792;2022-07-21T09:39:42;18.57;;;17.10;;
2656;SDS011;1338;48.176;11.792;2022-07-21T09:42:17;18.00;;;16.20;;
2656;SDS011;1338;48.176;11.792;2022-07-21T09:44:48;17.87;;;16.27;;
2656;SDS011;1338;48.176;11.792;2022-07-21T09:47:18;17.80;;;16.10;;
2656;SDS011;1338;48.176;11.792;2022-07-21T09:49:48;15.90;;;14.50;;
2656;SDS011;1338;48.176;11.792;2022-07-21T09:52:37;17.57;;;15.97;;
2656;SDS011;1338;48.176;11.792;2022-07-21T09:55:07;17.77;;;16.27;;
2656;SDS011;1338;48.176;11.792;2022-07-21T09:57:39;17.23;;;15.83;;
2656;SDS011;1338;48.176;11.792;2022-07-21T10:00:08;17.03;;;15.53;;
2656;SDS011;1338;48.176;11.792;2022-07-21T10:02:45;18.00;;;16.17;;
2656;SDS011;1338;48.176;11.792;2022-07-21T10:05:15;17.60;;;16.10;;
2656;SDS011;1338;48.176;11.792;2022-07-21T10:07:45;17.20;;;15.60;;
2656;SDS011;1338;48.176;11.792;2022-07-21T10:10:15;21.83;;;16.70;;
2656;SDS011;1338;48.176;11.792;2022-07-21T10:12:49;18.17;;;16.67;;
2656;SDS011;1338;48.176;11.792;2022-07-21T10:15:18;18.57;;;16.87;;
2656;SDS011;1338;48.176;11.792;2022-07-21T10:17:46;17.97;;;16.43;;
2656;SDS011;1338;48.176;11.792;2022-07-21T10:20:21;18.07;;;16.47;;
2656;SDS011;1338;48.176;11.792;2022-07-21T10:22:56;16.23;;;14.80;;
2656;SDS011;1338;48.176;11.792;2022-07-21T10:25:30;16.67;;;15.17;;
2656;SDS011;1338;48.176;11.792;2022-07-21T10:28:13;17.63;;;16.10;;
2656;SDS011;1338;48.176;11.792;2022-07-21T10:30:44;17.70;;;16.30;;
2656;SDS011;1338;48.176;11.792;2022-07-21T10:33:15;18.50;;;16.80;;
2656;SDS011;1338;48.176;11.792;2022-07-21T10:35:45;17.43;;;15.87;;
2656;SDS011;1338;48.176;11.792;2022-07-21T10:38:27;18.53;;;17.03;;
2656;SDS011;1338;48.176;11.792;2022-07-21T10:40:56;17.97;;;16.43;;
2656;SDS011;1338;48.176;11.792;2022-07-21T10:46:37;17.83;;;16.27;;
2656;SDS011;1338;48.176;11.792;2022-07-21T10:49:07;18.63;;;17.10;;
2656;SDS011;1338;48.176;11.792;2022-07-21T10:51:37;18.60;;;17.10;;
2656;SDS011;1338;48.176;11.792;2022-07-21T10:54:18;15.60;;;14.40;;
2656;SDS011;1338;48.176;11.792;2022-07-21T11:02:54;15.70;;;14.40;;
2656;SDS011;1338;48.176;11.792;2022-07-21T11:05:25;16.60;;;15.00;;
2656;SDS011;1338;48.176;11.792;2022-07-21T11:08:14;19.50;;;17.83;;
2656;SDS011;1338;48.176;11.792;2022-07-21T11:10:45;18.50;;;17.03;;
2656;SDS011;1338;48.176;11.792;2022-07-21T11:13:15;21.30;;;19.50;;
2656;SDS011;1338;48.176;11.792;2022-07-21T11:18:28;19.90;;;18.10;;
2656;SDS011;1338;48.176;11.792;2022-07-21T11:21:00;20.43;;;18.40;;
2656;SDS011;1338;48.176;11.792;2022-07-21T11:23:35;18.87;;;17.07;;
2656;SDS011;1338;48.176;11.792;2022-07-21T11:26:09;18.77;;;17.17;;
2656;SDS011;1338;48.176;11.792;2022-07-21T11:28:38;21.37;;;19.40;;
2656;SDS011;1338;48.176;11.792;2022-07-21T11:31:09;20.33;;;18.60;;
2656;SDS011;1338;48.176;11.792;2022-07-21T11:33:40;18.80;;;16.63;;
2656;SDS011;1338;48.176;11.792;2022-07-21T11:36:10;20.83;;;19.03;;
2656;SDS011;1338;48.176;11.792;2022-07-21T11:39:00;19.30;;;17.80;;
2656;SDS011;1338;48.176;11.792;2022-07-21T11:41:31;19.67;;;17.83;;
2656;SDS011;1338;48.176;11.792;2022-07-21T11:44:00;20.63;;;18.93;;
2656;SDS011;1338;48.176;11.792;2022-07-21T11:49:15;19.70;;;18.00;;
2656;SDS011;1338;48.176;11.792;2022-07-21T11:51:47;21.60;;;19.60;;
2656;SDS011;1338;48.176;11.792;2022-07-21T11:54:23;15.80;;;14.60;;
2656;SDS011;1338;48.176;11.792;2022-07-21T11:56:54;20.30;;;18.30;;
2656;SDS011;1338;48.176;11.792;2022-07-21T11:59:23;19.27;;;17.70;;
2656;SDS011;1338;48.176;11.792;2022-07-21T12:01:54;21.80;;;19.90;;
2656;SDS011;1338;48.176;11.792;2022-07-21T12:04:35;22.27;;;20.47;;
2656;SDS011;1338;48.176;11.792;2022-07-21T12:07:16;20.77;;;18.87;;
2656;SDS011;1338;48.176;11.792;2022-07-21T12:09:48;21.17;;;19.37;;
2656;SDS011;1338;48.176;11.792;2022-07-21T12:12:27;20.17;;;18.37;;
2656;SDS011;1338;48.176;11.792;2022-07-21T12:14:57;22.17;;;20.23;;
2656;SDS011;1338;48.176;11.792;2022-07-21T12:17:38;21.20;;;19.10;;
2656;SDS011;1338;48.176;11.792;2022-07-21T12:20:07;21.57;;;19.57;;
2656;SDS011;1338;48.176;11.792;2022-07-21T12:22:38;19.43;;;17.57;;
2656;SDS011;1338;48.176;11.792;2022-07-21T12:25:09;16.20;;;14.87;;
2656;SDS011;1338;48.176;11.792;2022-07-21T12:27:39;21.30;;;19.40;;
2656;SDS011;1338;48.176;11.792;2022-07-21T12:30:10;21.63;;;19.80;;
2656;SDS011;1338;48.176;11.792;2022-07-21T12:33:03;22.03;;;20.23;;
2656;SDS011;1338;48.176;11.792;2022-07-21T12:35:36;22.87;;;20.80;;
2656;SDS011;1338;48.176;11.792;2022-07-21T12:38:06;22.20;;;20.50;;
2656;SDS011;1338;48.176;11.792;2022-07-21T12:40:37;23.03;;;20.93;;
2656;SDS011;1338;48.176;11.792;2022-07-21T12:43:27;23.97;;;21.83;;
2656;SDS011;1338;48.176;11.792;2022-07-21T12:45:57;22.23;;;20.13;;
2656;SDS011;1338;48.176;11.792;2022-07-21T12:48:28;21.50;;;19.70;;
2656;SDS011;1338;48.176;11.792;2022-07-21T12:50:59;22.13;;;20.23;;
2656;SDS011;1338;48.176;11.792;2022-07-21T12:53:32;19.83;;;18.00;;
2656;SDS011;1338;48.176;11.792;2022-07-21T12:56:03;22.70;;;20.90;;
2656;SDS011;1338;48.176;11.792;2022-07-21T12:58:32;18.87;;;17.37;;
2656;SDS011;1338;48.176;11.792;2022-07-21T13:01:00;22.57;;;20.37;;
2656;SDS011;1338;48.176;11.792;2022-07-21T13:03:30;21.93;;;19.93;;
2656;SDS011;1338;48.176;11.792;2022-07-21T13:06:00;22.40;;;20.60;;
2656;SDS011;1338;48.176;11.792;2022-07-21T13:08:35;21.50;;;19.60;;
2656;SDS011;1338;48.176;11.792;2022-07-21T13:11:05;20.63;;;18.93;;
2656;SDS011;1338;48.176;11.792;2022-07-21T13:13:34;19.57;;;17.93;;
2656;SDS011;1338;48.176;11.792;2022-07-21T13:16:03;20.80;;;19.00;;
2656;SDS011;1338;48.176;11.792;2022-07-21T13:18:34;20.17;;;18.57;;
2656;SDS011;1338;48.176;11.792;2022-07-21T13:21:03;20.83;;;19.10;;
2656;SDS011;1338;48.176;11.792;2022-07-21T13:23:32;18.37;;;16.80;;
2656;SDS011;1338;48.176;11.792;2022-07-21T13:26:00;18.40;;;16.90;;
2656;SDS011;1338;48.176;11.792;2022-07-21T13:28:31;18.23;;;16.73;;
2656;SDS011;1338;48.176;11.792;2022-07-21T13:31:02;17.07;;;15.67;;
2656;SDS011;1338;48.176;11.792;2022-07-21T13:33:35;18.83;;;17.03;;
2656;SDS011;1338;48.176;11.792;2022-07-21T13:36:04;20.43;;;18.80;;
2656;SDS011;1338;48.176;11.792;2022-07-21T13:38:33;20.57;;;18.70;;
2656;SDS011;1338;48.176;11.792;2022-07-21T13:41:02;18.80;;;17.30;;
2656;SDS011;1338;48.176;11.792;2022-07-21T13:43:50;16.47;;;15.07;;
2656;SDS011;1338;48.176;11.792;2022-07-21T13:46:19;15.70;;;14.37;;
2656;SDS011;1338;48.176;11.792;2022-07-21T13:48:49;19.67;;;17.80;;
2656;SDS011;1338;48.176;11.792;2022-07-21T13:51:18;19.00;;;17.20;;
2656;SDS011;1338;48.176;11.792;2022-07-21T13:53:47;18.60;;;16.80;;
2656;SDS011;1338;48.176;11.792;2022-07-21T13:56:17;21.00;;;19.20;;
2656;SDS011;1338;48.176;11.792;2022-07-21T13:58:46;17.23;;;15.60;;
2656;SDS011;1338;48.176;11.792;2022-07-21T14:01:14;17.60;;;15.90;;
2656;SDS011;1338;48.176;11.792;2022-07-21T14:03:43;19.17;;;17.67;;
2656;SDS011;1338;48.176;11.792;2022-07-21T14:06:14;19.97;;;18.07;;
2656;SDS011;1338;48.176;11.792;2022-07-21T14:08:43;23.63;;;18.40;;
2656;SDS011;1338;48.176;11.792;2022-07-21T14:11:12;20.13;;;18.33;;
2656;SDS011;1338;48.176;11.792;2022-07-21T14:13:41;21.60;;;19.73;;
2656;SDS011;1338;48.176;11.792;2022-07-21T14:16:10;20.40;;;18.60;;
2656;SDS011;1338;48.176;11.792;2022-07-21T14:18:39;19.37;;;17.77;;
2656;SDS011;1338;48.176;11.792;2022-07-21T14:21:08;20.53;;;18.80;;
2656;SDS011;1338;48.176;11.792;2022-07-21T14:23:37;20.50;;;18.53;;
2656;SDS011;1338;48.176;11.792;2022-07-21T14:26:06;22.20;;;20.30;;
2656;SDS011;1338;48.176;11.792;2022-07-21T14:28:35;18.27;;;16.40;;
2656;SDS011;1338;48.176;11.792;2022-07-21T14:31:03;19.70;;;18.20;;
2656;SDS011;1338;48.176;11.792;2022-07-21T14:33:31;19.33;;;17.70;;
2656;SDS011;1338;48.176;11.792;2022-07-21T14:36:00;15.50;;;14.30;;
2656;SDS011;1338;48.176;11.792;2022-07-21T14:38:28;19.20;;;17.50;;
2656;SDS011;1338;48.176;11.792;2022-07-21T14:40:58;20.80;;;19.00;;
2656;SDS011;1338;48.176;11.792;2022-07-21T14:43:27;16.87;;;15.53;;
2656;SDS011;1338;48.176;11.792;2022-07-21T14:45:55;18.47;;;16.80;;
2656;SDS011;1338;48.176;11.792;2022-07-21T14:48:23;19.73;;;17.90;;
2656;SDS011;1338;48.176;11.792;2022-07-21T14:50:51;20.17;;;18.40;;
2656;SDS011;1338;48.176;11.792;2022-07-21T14:53:20;19.70;;;18.10;;
2656;SDS011;1338;48.176;11.792;2022-07-21T14:55:48;18.10;;;16.60;;
2656;SDS011;1338;48.176;11.792;2022-07-21T14:58:17;19.60;;;18.00;;
2656;SDS011;1338;48.176;11.792;2022-07-21T15:00:46;20.47;;;18.67;;
2656;SDS011;1338;48.176;11.792;2022-07-21T15:03:14;20.90;;;19.07;;
2656;SDS011;1338;48.176;11.792;2022-07-21T15:05:43;18.47;;;16.77;;
2656;SDS011;1338;48.176;11.792;2022-07-21T15:08:11;19.93;;;18.33;;
2656;SDS011;1338;48.176;11.792;2022-07-21T15:10:40;20.93;;;19.17;;
2656;SDS011;1338;48.176;11.792;2022-07-21T15:13:09;20.57;;;18.77;;
2656;SDS011;1338;48.176;11.792;2022-07-21T15:15:39;19.67;;;17.63;;